logo
Rechercher aéroport 
image banner adimage banner adimage banner ad
image banner ad

MRBP - Barra De Parismina

Situé à Pococi, Costa Rica

ICAO - MRBP, IATA -

Données fournies par Airmate  

Information générale

Coordonnées: N10°18'9" W83°20'45"
Élévation : 56 feet MSL.
 
Voir autres Aéroports à Limon

Données opérationnelles

Special qualification required
Heure actuelle UTC:
Heure actuelle locale:
Météo à : MRLM - Limon Intl ( 52 km )
METAR: MRLM 172100Z 01007KT CAVOK 31/26 A2978
TAF: MRLM 171718Z 1718/1818 04006KT 9999 FEW020 TX31/1720Z TN23/1811Z BECMG 1800/1803 24005KT TEMPO 1804/1808 RA BKN015 BECMG 1815/1818 06007KT
Voir NOTAMs / SUP AIP / TFR affectant cet aéroport [VIEW]
Fréquences de communication: [VIEW]

Pistes:

Identifiant RWYQFULongueur (ft)Largeur (ft)SurfaceLDA (ft)
14295333UNK
32295333UNK

Coordonnées de l'aéroport

Adresse: Pococi Costa Rica

Vue satellite de MRBP